Jack C. Davis Observatory, Carson City, Nevada Weather observations

Data are for observation ending at time listed.
 Day   Time    Ave.   Ave.  Ave.  Vector   Max.   Stn.    Total    Solar   Ave.  
  of    of     Air    Rel.  Wind   Wind    Wind   Baro.  Precip.   Rad.    Soil  
Year   Day     Temp.  Hum.  Speed  Dir.    Gust   Pres.                    Temp. 
2016   (PST)    F      %     mph   deg.    mph     mb.     in.     W/m2     F   
------------------------------------------------------------------------------
 270    3:30   52.3    31    3.4   252      5.3   600.7    0.00       0    999.0
 270    3:40   52.3    30    2.2   308      3.3   600.7    0.00       0    999.0
 270    3:50   52.4    29    0.3   316      2.2   600.7    0.00       0    999.0
 270    4:00   52.0    30    1.5   348      2.3   600.6    0.00       0    999.0
 270    4:10   50.2    32    0.9   319      2.6   600.5    0.00       0    999.0
 270    4:20   49.1    33    3.5   299      4.0   600.5    0.00       0    999.0
 270    4:30   48.9    35    3.0   281      4.3   600.6    0.00       0    999.0
 270    4:40   49.6    33    2.0   304      3.7   600.5    0.00       0    999.0
 270    4:50   49.3    33    1.1   316      1.9   600.5    0.00       0    999.0
 270    5:00   50.0    32    1.1    30      2.0   600.6    0.00       0    999.0
 270    5:10   48.9    33    1.8   303      2.9   600.5    0.00       0    999.0
 270    5:20   48.1    35    1.3    41      2.3   600.6    0.00       0    999.0
 270    5:30   46.7    38    0.8   309      2.9   600.6    0.00       0    999.0
 270    5:40   46.7    37    1.8   342      3.4   600.6    0.00       1    999.0
 270    5:50   46.7    37    0.9   330      2.8   600.6    0.00       2    999.0
 270    6:00   45.7    39    2.4   307      4.1   600.6    0.00       5    999.0
 270    6:10   46.5    37    1.9   281      4.1   600.6    0.00      22    999.0
 270    6:20   49.0    34    2.1   272      3.5   600.6    0.00      48    999.0
 270    6:30   51.4    31    1.6   295      3.1   600.7    0.00      82    999.0
 270    6:40   52.2    31    1.7   294      2.6   600.7    0.00     118    999.0
 270    6:50   55.9    26    0.3    67      1.8   600.7    0.00     148    999.0
 270    7:00   58.6    25    0.5   101      1.8   600.7    0.00     179    999.0
 270    7:10   58.9    25    1.0    72      2.6   600.7    0.00     210    999.0
 270    7:20   56.0    29    1.9    66      3.7   600.7    0.00     243    999.0
 270    7:30   56.9    28    1.4    63      2.4   600.7    0.00     276    999.0
 270    7:40   56.6    30    2.2    94      3.4   600.7    0.00     309    999.0
 270    7:50   56.8    30    1.7   104      3.0   600.7    0.00     342    999.0
 270    8:00   59.1    26    1.2    95      2.4   600.7    0.00     374    999.0
 270    8:10   60.1    24    1.0    92      2.8   600.7    0.00     405    999.0
 270    8:20   61.8    22    1.1    98      2.3   600.7    0.00     436    999.0
 270    8:30   61.5    23    2.3    78      4.4   600.7    0.00     466    999.0
 270    8:40   60.8    24    2.6    86      4.9   600.7    0.00     495    999.0
 270    8:50   61.2    25    2.1    96      4.3   600.7    0.00     522    999.0
 270    9:00   63.9    24    1.3   112      4.8   600.7    0.00     549    999.0
 270    9:10   64.9    24    1.0   113      3.8   600.7    0.00     575    999.0
 270    9:20   65.4    24    2.2    89      4.4   600.7    0.00     599    999.0
 270    9:30   66.5    23    2.1   114      4.5   600.7    0.00     622    999.0
 270    9:40   68.5    21    2.4   126      4.5   600.7    0.00     645    999.0
 270    9:50   69.1    20    2.8   114      5.9   600.7    0.00     666    999.0
 270   10:00   69.3    20    3.6   108      6.1   600.7    0.00     684    999.0
 270   10:10   69.1    20    4.2   108      7.9   600.7    0.00     702    999.0
 270   10:20   70.3    20    2.8    96      6.4   600.7    0.00     718    999.0
 270   10:30   70.6    19    2.9    96      6.5   600.7    0.00     733    999.0
 270   10:40   71.9    17    2.4    97      6.4   600.7    0.00     747    999.0
 270   10:50   72.7    16    2.9   106      7.4   600.7    0.00     758    999.0
 270   11:00   72.4    16    3.0    81      6.1   600.7    0.00     768    999.0
 270   11:10   73.1    16    3.5    86      6.6   600.7    0.00     776    999.0
 270   11:20   73.2    16    3.5    73      6.4   600.7    0.00     781    999.0
 270   11:30   74.8    15    3.5   105      8.3   600.7    0.00     786    999.0
 270   11:40   74.6    15    3.9    89      6.8   600.7    0.00     788    999.0
 270   11:50   76.1    14    3.2   102      5.9   600.7    0.00     788    999.0
 270   12:00   77.3    14    3.9   103      9.6   600.7    0.00     788    999.0
 270   12:10   76.4    14    4.8    92      8.8   600.7    0.00     787    999.0
 270   12:20   77.3    14    3.6    88      8.6   600.7    0.00     783    999.0
 270   12:30   78.2    14    2.6    96      8.0   600.7    0.00     777    999.0
 270   12:40   79.1    13    4.1    88      7.2   600.6    0.00     770    999.0
 270   12:50   79.2    13    4.2   119      9.3   600.4    0.00     760    999.0
 270   13:00   79.0    13    4.0    86      9.3   600.2    0.00     750    999.0
 270   13:10   80.3    13    3.6   109      7.7   600.4    0.00     737    999.0
 270   13:20   80.4    13    2.6    35      6.6   600.7    0.00     723    999.0
 270   13:30   82.0    12    2.0   142      6.5   600.6    0.00     708    999.0
 270   13:40   82.1    12    3.4   147      6.4   600.4    0.00     691    999.0
 270   13:50   81.7    12    4.6   139     10.4   600.3    0.00     672    999.0
 270   14:00   80.7    12    6.0    87     10.6   600.3    0.00     652    999.0
 270   14:10   81.1    12    5.2    97     12.1   600.6    0.00     631    999.0
 270   14:20   81.3    12    5.9   119     10.7   600.7    0.00     608    999.0
 270   14:30   81.4    12    6.2   113     12.1   600.7    0.00     583    999.0
 270   14:40   82.1    12    4.6   111      8.0   600.8    0.00     558    999.0
 270   14:50   82.1    12    5.9   111     12.4   600.8    0.00     531    999.0
 270   15:00   82.7    12    5.2   135      9.5   600.9    0.00     503    999.0
 270   15:10   82.8    12    5.4   114     12.1   600.9    0.00     475    999.0
 270   15:20   82.5    12    5.5   106      9.7   600.8    0.00     444    999.0
 270   15:30   82.6    12    5.8   122      9.2   600.8    0.00     414    999.0
 270   15:40   82.5    12    4.1   107      7.5   600.8    0.00     382    999.0
 270   15:50   82.4    12    5.7   103     10.1   600.8    0.00     350    999.0
 270   16:00   81.8    12    5.4    77      9.6   600.8    0.00     319    999.0
 270   16:10   81.7    12    4.4    72      9.2   600.8    0.00     286    999.0
 270   16:20   81.6    12    5.5    85      9.1   600.8    0.00     253    999.0
 270   16:30   81.5    12    3.9    73      7.8   600.8    0.00     220    999.0
 270   16:40   80.7    12    4.8    71      8.6   600.8    0.00     188    999.0
 270   16:50   80.2    13    4.7    84      9.2   600.7    0.00     158    999.0
 270   17:00   79.4    13    4.4    88      9.3   600.7    0.00      90    999.0
 270   17:10   78.0    13    4.3    88      9.3   600.7    0.00      18    999.0
 270   17:20   77.4    14    2.5   104      6.4   600.7    0.00      15    999.0
 270   17:30   74.6    16    4.1   248      7.6   600.7    0.00      12    999.0
 270   17:40   73.4    16    2.5   232      8.0   600.7    0.00       9    999.0
 270   17:50   73.1    16    6.2   248      9.5   600.7    0.00       5    999.0
 270   18:00   72.1    16    5.8   245      8.8   600.7    0.00       2    999.0
 270   18:10   72.9    16    4.6   237      7.8   600.7    0.00       1    999.0
 270   18:20   70.7    18    7.0   265     10.2   600.7    0.00       0    999.0
 270   18:30   70.0    18    6.0   272      9.1   600.7    0.00       0    999.0
 270   18:40   70.7    17    5.4   269      7.4   600.7    0.00       0    999.0
 270   18:50   71.1    17    4.5   263      8.0   600.7    0.00       0    999.0
 270   19:00   71.2    17    6.6   255      9.4   600.7    0.00       0    999.0
 270   19:10   71.2    17    3.7   254      8.8   600.7    0.00       0    999.0
 270   19:20   69.4    19    5.8   259      8.3   600.7    0.00       0    999.0
 270   19:30   69.3    19    5.7   268      8.3   600.7    0.00       0    999.0
 270   19:40   69.3    19    6.4   270      8.8   600.7    0.00       0    999.0
 270   19:50   67.4    20    6.3   269      8.8   600.7    0.00       0    999.0
 270   20:00   66.9    21    6.8   268      8.5   600.7    0.00       0    999.0
 270   20:10   67.4    21    6.6   266      8.8   600.7    0.00       0    999.0
 270   20:20   67.1    21    7.0   270      9.4   600.7    0.00       0    999.0
 270   20:30   66.8    22    6.9   270      9.5   600.6    0.00       0    999.0
 270   20:40   67.2    21    5.4   280      7.9   600.7    0.00       0    999.0
 270   20:50   66.3    22    4.2   301      7.4   600.7    0.00       0    999.0
 270   21:00   66.1    21    4.0   298      5.4   600.7    0.00       0    999.0
 270   21:10   66.2    21    4.2   293      5.8   600.7    0.00       0    999.0
 270   21:20   65.7    22    4.4   290      6.9   600.7    0.00       0    999.0
 270   21:30   64.8    22    4.9   285      6.9   600.7    0.00       0    999.0
 270   21:40   64.3    22    5.2   307      8.2   600.7    0.00       0    999.0
 270   21:50   64.4    22    5.9   315      8.6   600.7    0.00       0    999.0
 270   22:00   63.2    23    4.9   309      7.8   600.7    0.00       0    999.0
 270   22:10   63.0    24    4.3   286      6.4   600.7    0.00       0    999.0
 270   22:20   62.7    24    3.9   286      5.8   600.7    0.00       0    999.0
 270   22:30   62.2    25    2.6   295      3.7   600.7    0.00       0    999.0
 270   22:40   61.0    26    4.0   282      6.2   600.7    0.00       0    999.0
 270   22:50   61.4    25    3.2   298      4.8   600.7    0.00       0    999.0
 270   23:00   60.3    27    3.7   280      5.3   600.7    0.00       0    999.0
 270   23:10   59.4    28    3.5   282      4.9   600.7    0.00       0    999.0
 270   23:20   58.8    28    3.1   278      4.8   600.7    0.00       0    999.0
 270   23:30   57.7    30    3.2   282      5.0   600.6    0.00       0    999.0
 270   23:40   59.3    28    3.5   285      5.5   600.7    0.00       0    999.0
 270   23:50   58.3    29    2.6   293      5.0   600.7    0.00       0    999.0
 271    0:00   57.9    29    1.5   295      3.6   600.7    0.00       0    999.0
 271    0:10   57.8    29    2.4   300      4.2   600.7    0.00       0    999.0
 271    0:20   58.0    29    1.5   314      3.2   600.7    0.00       0    999.0
 271    0:30   58.2    29    1.9   294      4.2   600.7    0.00       0    999.0
 271    0:40   58.0    29    3.1   278      4.6   600.7    0.00       0    999.0
 271    0:50   58.0    29    2.6   278      4.8   600.7    0.00       0    999.0
 271    1:00   56.7    30    3.0   297      4.6   600.6    0.00       0    999.0
 271    1:10   55.8    31    2.8   295      3.4   600.7    0.00       0    999.0
 271    1:20   55.7    31    4.3   275      5.6   600.7    0.00       0    999.0
 271    1:30   55.3    32    3.5   288      5.8   600.7    0.00       0    999.0
 271    1:40   56.0    31    1.7   270      3.3   600.7    0.00       0    999.0
 271    1:50   56.6    31    2.2   259      4.0   600.7    0.00       0    999.0
 271    2:00   54.6    33    2.8   270      4.3   600.7    0.00       0    999.0
 271    2:10   53.2    35    4.3   265      5.3   600.6    0.00       0    999.0
 271    2:20   53.5    35    4.2   278      5.9   600.6    0.00       0    999.0
 271    2:30   53.2    35    4.0   276      5.0   600.6    0.00       0    999.0
 271    2:40   53.3    35    5.3   268      6.6   600.7    0.00       0    999.0
 271    2:50   53.4    35    5.3   264      6.5   600.6    0.00       0    999.0
 271    3:00   53.9    33    3.6   281      4.9   600.7    0.00       0    999.0
 271    3:10   53.1    35    3.3   283      4.7   600.7    0.00       0    999.0
 271    3:20   53.0    35    4.1   273      5.3   600.7    0.00       0    999.0

Return to Yerington, Nevada graphs page.


Western Regional Climate Center,wrcc@dri.edu